createdAt,value
2023-04-12T00:00:49.603Z,0.00
2023-04-12T00:01:48.605Z,0.00
2023-04-12T00:02:48.719Z,0.00
2023-04-12T00:03:48.653Z,0.00
2023-04-12T00:04:48.718Z,0.00
2023-04-12T00:05:48.607Z,0.00
2023-04-12T00:06:49.563Z,0.00
2023-04-12T00:07:48.545Z,0.00
2023-04-12T00:08:48.553Z,0.00
2023-04-12T00:09:48.539Z,0.00
2023-04-12T00:10:48.529Z,0.00
2023-04-12T00:11:48.542Z,0.00
2023-04-12T00:12:49.535Z,0.00
2023-04-12T00:13:48.512Z,0.00
2023-04-12T00:14:48.507Z,0.00
2023-04-12T00:15:48.505Z,0.00
2023-04-12T00:16:48.501Z,0.00
2023-04-12T00:17:48.508Z,0.00
2023-04-12T00:18:49.504Z,0.00
2023-04-12T00:19:48.465Z,0.00
2023-04-12T00:20:48.470Z,0.00
2023-04-12T00:21:48.493Z,0.00
2023-04-12T00:22:48.459Z,0.00
2023-04-12T00:23:48.442Z,0.00
2023-04-12T00:24:49.469Z,0.00
2023-04-12T00:25:48.442Z,0.00
2023-04-12T00:26:48.450Z,0.00
2023-04-12T00:27:48.415Z,0.00
2023-04-12T00:28:48.414Z,0.00
2023-04-12T00:29:48.392Z,0.00
2023-04-12T00:30:49.414Z,0.00
2023-04-12T00:31:48.659Z,0.00
2023-04-12T00:32:48.409Z,0.00
2023-04-12T00:33:48.436Z,0.00
2023-04-12T00:34:48.389Z,0.00
2023-04-12T00:35:48.401Z,0.00
2023-04-12T00:36:49.362Z,0.00
2023-04-12T00:37:48.347Z,0.00
2023-04-12T00:38:48.343Z,0.00
2023-04-12T00:39:48.323Z,0.00
2023-04-12T00:40:48.340Z,0.00
2023-04-12T00:41:48.320Z,0.00
2023-04-12T00:42:49.334Z,0.00
2023-04-12T00:43:48.297Z,0.00
2023-04-12T00:44:48.310Z,0.00
2023-04-12T00:45:48.285Z,0.00
2023-04-12T00:46:48.368Z,0.00
2023-04-12T00:47:48.314Z,0.00
2023-04-12T00:48:49.300Z,0.00
2023-04-12T00:49:48.253Z,0.00
2023-04-12T00:50:48.273Z,0.00
2023-04-12T00:51:48.247Z,0.00
2023-04-12T00:52:48.248Z,0.00
2023-04-12T00:53:48.236Z,0.00
2023-04-12T00:54:49.248Z,0.00
2023-04-12T00:55:48.226Z,0.00
2023-04-12T00:56:48.236Z,0.00
2023-04-12T00:57:48.212Z,0.00
2023-04-12T00:58:48.216Z,0.00
2023-04-12T00:59:48.193Z,0.00
2023-04-12T01:00:49.230Z,0.00
2023-04-12T01:01:48.277Z,0.00
2023-04-12T01:02:48.317Z,0.00
2023-04-12T01:03:48.269Z,0.00
2023-04-12T01:04:48.182Z,0.00
2023-04-12T01:05:48.160Z,0.00
2023-04-12T01:06:49.168Z,0.00
2023-04-12T01:07:48.143Z,0.00
2023-04-12T01:08:48.138Z,0.00
2023-04-12T01:09:48.113Z,0.00
2023-04-12T01:10:48.129Z,0.00
2023-04-12T01:11:48.100Z,0.00
2023-04-12T01:12:49.127Z,0.00
2023-04-12T01:13:48.094Z,0.00
2023-04-12T01:14:48.092Z,0.00
2023-04-12T01:15:48.116Z,0.00
2023-04-12T01:16:48.109Z,0.00
2023-04-12T01:17:48.095Z,0.00
2023-04-12T01:18:49.076Z,0.00
2023-04-12T01:19:48.049Z,0.00
2023-04-12T01:20:48.060Z,0.00
2023-04-12T01:21:48.045Z,0.00
2023-04-12T01:22:48.044Z,0.00
2023-04-12T01:23:48.022Z,0.00
2023-04-12T01:24:49.030Z,0.00
2023-04-12T01:25:48.090Z,0.00
2023-04-12T01:26:48.016Z,0.00
2023-04-12T01:27:48.003Z,0.00
2023-04-12T01:28:47.990Z,0.00
2023-04-12T01:29:47.980Z,0.00
2023-04-12T01:30:48.992Z,0.00
2023-04-12T01:31:48.022Z,0.00
2023-04-12T01:32:47.995Z,0.00
2023-04-12T01:33:47.947Z,0.00
2023-04-12T01:34:47.956Z,0.00
2023-04-12T01:35:47.975Z,0.00
2023-04-12T01:36:48.953Z,0.00
2023-04-12T01:37:47.937Z,0.00
2023-04-12T01:38:47.932Z,0.00
2023-04-12T01:39:47.911Z,0.00
2023-04-12T01:40:47.911Z,0.00
2023-04-12T01:41:47.916Z,0.00
2023-04-12T01:42:48.947Z,0.00
2023-04-12T01:43:47.882Z,0.00
2023-04-12T01:44:47.880Z,0.00
2023-04-12T01:45:47.912Z,0.00
2023-04-12T01:46:47.868Z,0.00
2023-04-12T01:47:47.893Z,0.00
2023-04-12T01:48:48.867Z,0.00
2023-04-12T01:49:47.849Z,0.00
2023-04-12T01:50:47.853Z,0.00
2023-04-12T01:51:47.834Z,0.00
2023-04-12T01:52:47.843Z,0.00
2023-04-12T01:53:47.823Z,0.00
2023-04-12T01:54:48.827Z,0.00
2023-04-12T01:55:47.806Z,0.00
2023-04-12T01:56:47.822Z,0.00
2023-04-12T01:57:47.794Z,0.00
2023-04-12T01:58:47.790Z,0.00
2023-04-12T01:59:47.778Z,0.00
2023-04-12T02:00:48.805Z,0.00
2023-04-12T02:01:47.834Z,0.00
2023-04-12T02:02:47.827Z,0.00
2023-04-12T02:03:47.771Z,0.00
2023-04-12T02:04:47.758Z,0.00
2023-04-12T02:05:47.726Z,0.00
2023-04-12T02:06:48.752Z,0.00
2023-04-12T02:07:47.759Z,0.00
2023-04-12T02:08:47.712Z,0.00
2023-04-12T02:09:47.714Z,0.00
2023-04-12T02:10:47.700Z,0.00
2023-04-12T02:11:47.714Z,0.00
2023-04-12T02:12:48.699Z,0.00
2023-04-12T02:13:47.659Z,0.00
2023-04-12T02:14:47.683Z,0.00
2023-04-12T02:15:47.655Z,0.00
2023-04-12T02:16:47.730Z,0.00
2023-04-12T02:17:47.693Z,0.00
2023-04-12T02:18:48.651Z,0.00
2023-04-12T02:19:47.625Z,0.00
2023-04-12T02:20:47.624Z,0.00
2023-04-12T02:21:47.605Z,0.00
2023-04-12T02:22:47.630Z,0.00
2023-04-12T02:23:47.590Z,0.00
2023-04-12T02:24:48.610Z,0.00
2023-04-12T02:25:47.635Z,0.00
2023-04-12T02:26:47.600Z,0.00
2023-04-12T02:27:47.565Z,0.00
2023-04-12T02:28:47.564Z,0.00
2023-04-12T02:29:47.553Z,0.00
2023-04-12T02:30:48.575Z,0.00
2023-04-12T02:31:47.533Z,0.00
2023-04-12T02:32:47.572Z,0.00
2023-04-12T02:33:47.515Z,0.00
2023-04-12T02:34:47.545Z,0.00
2023-04-12T02:35:47.551Z,0.00
2023-04-12T02:36:48.533Z,0.00
2023-04-12T02:37:47.492Z,0.00
2023-04-12T02:38:47.499Z,0.00
2023-04-12T02:39:47.470Z,0.00
2023-04-12T02:40:47.488Z,0.00
2023-04-12T02:41:47.470Z,0.00
2023-04-12T02:42:48.495Z,0.00
2023-04-12T02:43:47.444Z,0.00
2023-04-12T02:44:47.454Z,0.00
2023-04-12T02:45:47.475Z,0.00
2023-04-12T02:46:47.433Z,0.00
2023-04-12T02:47:47.477Z,0.00
2023-04-12T02:48:48.428Z,0.00
2023-04-12T02:49:47.421Z,0.00
2023-04-12T02:50:47.392Z,0.00
2023-04-12T02:51:47.394Z,0.00
2023-04-12T02:52:47.377Z,0.00
2023-04-12T02:53:47.394Z,0.00
2023-04-12T02:54:48.384Z,0.00
2023-04-12T02:55:47.373Z,0.00
2023-04-12T02:56:47.359Z,0.00
2023-04-12T02:57:47.381Z,0.00
2023-04-12T02:58:47.339Z,0.00
2023-04-12T02:59:47.345Z,0.00
2023-04-12T03:00:48.360Z,0.00
2023-04-12T03:01:47.427Z,0.00
2023-04-12T03:02:47.459Z,0.00
2023-04-12T03:03:47.470Z,0.00
2023-04-12T03:04:47.303Z,0.00
2023-04-12T03:05:47.330Z,0.00
2023-04-12T03:06:48.284Z,0.00
2023-04-12T03:07:47.292Z,0.00
2023-04-12T03:08:47.274Z,0.00
2023-04-12T03:09:47.290Z,0.00
2023-04-12T03:10:47.258Z,0.00
2023-04-12T03:11:47.252Z,0.00
2023-04-12T03:12:48.263Z,0.00
2023-04-12T03:13:47.237Z,0.00
2023-04-12T03:14:47.215Z,0.00
2023-04-12T03:15:47.221Z,0.00
2023-04-12T03:16:47.216Z,0.00
2023-04-12T03:17:47.270Z,0.00
2023-04-12T03:18:48.203Z,0.00
2023-04-12T03:19:47.195Z,0.00
2023-04-12T03:20:47.869Z,0.00
2023-04-12T03:21:47.188Z,0.00
2023-04-12T03:22:47.156Z,0.00
2023-04-12T03:23:47.160Z,0.00
2023-04-12T03:24:48.154Z,0.00
2023-04-12T03:25:47.176Z,0.00
2023-04-12T03:26:47.162Z,0.00
2023-04-12T03:27:47.161Z,0.00
2023-04-12T03:28:47.152Z,0.00
2023-04-12T03:29:47.145Z,0.00
2023-04-12T03:30:48.121Z,0.00
2023-04-12T03:31:47.096Z,0.00
2023-04-12T03:32:47.167Z,0.00
2023-04-12T03:33:47.119Z,0.00
2023-04-12T03:34:47.082Z,0.00
2023-04-12T03:35:47.125Z,0.00
2023-04-12T03:36:48.084Z,0.00
2023-04-12T03:37:47.071Z,0.00
2023-04-12T03:38:47.071Z,0.00
2023-04-12T03:39:47.109Z,0.00
2023-04-12T03:40:47.112Z,0.00
2023-04-12T03:41:47.090Z,0.00
2023-04-12T03:42:48.032Z,0.00
2023-04-12T03:43:47.028Z,0.00
2023-04-12T03:44:47.025Z,0.00
2023-04-12T03:45:47.007Z,4.00
2023-04-12T03:46:47.034Z,4.00
2023-04-12T03:47:47.015Z,4.00
2023-04-12T03:48:47.969Z,0.00
2023-04-12T03:49:57.618Z,4.00
2023-04-12T03:50:46.950Z,4.00
2023-04-12T03:51:46.954Z,4.00
2023-04-12T03:52:46.926Z,4.00
2023-04-12T03:53:46.930Z,8.00
2023-04-12T03:54:47.939Z,8.00
2023-04-12T03:55:46.922Z,8.00
2023-04-12T03:56:46.935Z,12.00
2023-04-12T03:57:46.931Z,12.00
2023-04-12T03:58:46.920Z,16.00
2023-04-12T03:59:46.887Z,20.00
2023-04-12T04:00:47.880Z,24.00
2023-04-12T04:01:46.907Z,24.00
2023-04-12T04:02:46.906Z,28.00
2023-04-12T04:03:47.020Z,32.00
2023-04-12T04:04:46.896Z,40.00
2023-04-12T04:05:46.857Z,44.00
2023-04-12T04:06:47.843Z,52.00
2023-04-12T04:07:46.841Z,56.00
2023-04-12T04:08:46.819Z,64.00
2023-04-12T04:09:46.813Z,72.00
2023-04-12T04:10:46.800Z,80.00
2023-04-12T04:11:46.843Z,92.00
2023-04-12T04:12:47.817Z,100.00
2023-04-12T04:13:46.852Z,112.00
2023-04-12T04:14:46.787Z,124.00
2023-04-12T04:15:46.793Z,140.00
2023-04-12T04:16:46.803Z,152.00
2023-04-12T04:17:46.809Z,168.00
2023-04-12T04:18:47.745Z,184.00
2023-04-12T04:19:46.738Z,200.00
2023-04-12T04:20:46.736Z,220.00
2023-04-12T04:21:46.875Z,240.00
2023-04-12T04:22:46.714Z,256.00
2023-04-12T04:23:46.757Z,276.00
2023-04-12T04:24:47.716Z,296.00
2023-04-12T04:25:46.692Z,316.00
2023-04-12T04:26:46.703Z,340.00
2023-04-12T04:27:46.681Z,364.00
2023-04-12T04:28:46.664Z,384.00
2023-04-12T04:29:46.682Z,412.00
2023-04-12T04:30:47.648Z,436.00
2023-04-12T04:31:46.684Z,460.00
2023-04-12T04:32:46.673Z,488.00
2023-04-12T04:33:46.630Z,512.00
2023-04-12T04:34:46.625Z,540.00
2023-04-12T04:35:46.652Z,564.00
2023-04-12T04:36:47.610Z,592.00
2023-04-12T04:37:46.602Z,620.00
2023-04-12T04:38:46.590Z,652.00
2023-04-12T04:39:46.587Z,676.00
2023-04-12T04:40:46.571Z,708.00
2023-04-12T04:41:46.707Z,740.00
2023-04-12T04:42:47.556Z,768.00
2023-04-12T04:43:46.547Z,792.00
2023-04-12T04:44:46.535Z,828.00
2023-04-12T04:45:46.573Z,856.00
2023-04-12T04:46:46.525Z,884.00
2023-04-12T04:47:46.604Z,916.00
2023-04-12T04:48:47.522Z,944.00
2023-04-12T04:49:46.517Z,976.00
2023-04-12T04:50:46.489Z,1008.00
2023-04-12T04:51:46.498Z,1036.00
2023-04-12T04:52:46.513Z,1068.00
2023-04-12T04:53:46.488Z,1100.00
2023-04-12T04:54:47.472Z,1128.00
2023-04-12T04:55:46.469Z,1156.00
2023-04-12T04:56:46.463Z,1188.00
2023-04-12T04:57:46.470Z,1220.00
2023-04-12T04:58:46.445Z,1252.00
2023-04-12T04:59:46.426Z,1288.00
2023-04-12T05:00:47.463Z,1316.00
2023-04-12T05:01:46.516Z,1348.00
2023-04-12T05:02:46.526Z,1380.00
2023-04-12T05:03:46.503Z,1408.00
2023-04-12T05:04:46.386Z,1440.00
2023-04-12T05:05:46.417Z,1464.00
2023-04-12T05:06:47.387Z,1492.00
2023-04-12T05:07:46.362Z,1528.00
2023-04-12T05:08:46.366Z,1560.00
2023-04-12T05:09:46.354Z,1588.00
2023-04-12T05:10:46.345Z,1628.00
2023-04-12T05:11:46.344Z,1648.00
2023-04-12T05:12:47.325Z,1676.00
2023-04-12T05:13:46.322Z,1704.00
2023-04-12T05:14:49.870Z,1732.00
2023-04-12T05:15:46.320Z,1768.00
2023-04-12T05:16:46.331Z,1792.00
2023-04-12T05:17:46.334Z,1828.00
2023-04-12T05:18:47.358Z,1856.00
2023-04-12T05:19:46.287Z,1888.00
2023-04-12T05:20:46.271Z,1920.00
2023-04-12T05:21:46.272Z,1952.00
2023-04-12T05:22:46.282Z,1984.00
2023-04-12T05:23:46.252Z,2016.00
2023-04-12T05:24:47.258Z,2052.00
2023-04-12T05:25:46.224Z,2088.00
2023-04-12T05:26:46.236Z,2120.00
2023-04-12T05:27:46.238Z,2148.00
2023-04-12T05:28:46.197Z,2184.00
2023-04-12T05:29:46.199Z,2216.00
2023-04-12T05:30:47.301Z,2248.00
2023-04-12T05:31:46.198Z,2280.00
2023-04-12T05:32:46.208Z,2316.00
2023-04-12T05:33:46.188Z,2352.00
2023-04-12T05:34:46.153Z,2384.00
2023-04-12T05:35:46.225Z,2416.00
2023-04-12T05:36:47.192Z,2452.00
2023-04-12T05:37:46.172Z,2492.00
2023-04-12T05:38:46.164Z,2520.00
2023-04-12T05:39:46.128Z,2560.00
2023-04-12T05:40:46.133Z,2596.00
2023-04-12T05:41:46.132Z,2632.00
2023-04-12T05:42:47.123Z,2668.00
2023-04-12T05:43:46.169Z,2716.00
2023-04-12T05:44:48.605Z,2748.00
2023-04-12T05:45:46.215Z,2784.00
2023-04-12T05:46:46.151Z,2820.00
2023-04-12T05:47:46.102Z,2856.00
2023-04-12T05:48:47.148Z,2900.00
2023-04-12T05:49:46.105Z,2940.00
2023-04-12T05:50:46.077Z,2968.00
2023-04-12T05:51:46.067Z,3008.00
2023-04-12T05:52:46.040Z,3040.00
2023-04-12T05:53:46.039Z,3076.00
2023-04-12T05:54:47.028Z,3112.00
2023-04-12T05:55:46.042Z,3152.00
2023-04-12T05:56:46.035Z,3192.00
2023-04-12T05:57:46.015Z,3240.00
2023-04-12T05:58:45.999Z,3272.00
2023-04-12T05:59:45.995Z,3320.00
2023-04-12T06:00:47.015Z,3360.00
2023-04-12T06:01:45.994Z,3408.00
2023-04-12T06:02:46.176Z,3448.00
2023-04-12T06:03:46.039Z,3496.00
2023-04-12T06:04:50.374Z,3532.00
2023-04-12T06:05:46.063Z,3580.00
2023-04-12T06:06:46.948Z,3620.00
2023-04-12T06:07:45.933Z,3660.00
2023-04-12T06:08:45.916Z,3696.00
2023-04-12T06:09:45.933Z,3740.00
2023-04-12T06:10:45.994Z,3776.00
2023-04-12T06:11:45.929Z,3816.00
2023-04-12T06:12:46.916Z,3852.00
2023-04-12T06:13:45.932Z,3892.00
2023-04-12T06:14:45.873Z,3944.00
2023-04-12T06:15:45.916Z,3984.00
2023-04-12T06:16:45.883Z,4044.00
2023-04-12T06:17:45.942Z,4100.00
2023-04-12T06:18:46.909Z,4160.00
2023-04-12T06:19:45.907Z,4228.00
2023-04-12T06:20:45.836Z,4296.00
2023-04-12T06:21:45.903Z,4388.00
2023-04-12T06:22:45.823Z,4496.00
2023-04-12T06:23:45.872Z,4612.00
2023-04-12T06:24:46.823Z,4716.00
2023-04-12T06:25:45.820Z,4828.00
2023-04-12T06:26:45.789Z,4944.00
2023-04-12T06:27:45.809Z,5092.00
2023-04-12T06:28:45.860Z,14884.00
2023-04-12T06:29:45.807Z,33344.00
2023-04-12T06:30:46.790Z,49440.00
2023-04-12T06:31:45.941Z,71488.00
2023-04-12T06:32:45.797Z,79008.00
2023-04-12T06:33:45.784Z,80160.00
2023-04-12T06:34:45.756Z,80608.00
2023-04-12T06:35:45.823Z,78720.00
2023-04-12T06:36:46.793Z,78688.00
2023-04-12T06:37:45.943Z,81056.00
2023-04-12T06:38:45.755Z,86656.00
2023-04-12T06:39:45.809Z,86784.00
2023-04-12T06:40:45.766Z,84704.00
2023-04-12T06:41:45.759Z,84256.00
2023-04-12T06:42:46.742Z,86464.00
2023-04-12T06:43:45.765Z,84736.00
2023-04-12T06:44:45.735Z,84608.00
2023-04-12T06:45:45.754Z,83808.00
2023-04-12T06:46:45.816Z,83744.00
2023-04-12T06:47:45.765Z,79680.00
2023-04-12T06:48:46.769Z,76640.00
2023-04-12T06:49:45.759Z,77824.00
2023-04-12T06:50:45.827Z,74752.00
2023-04-12T06:51:45.773Z,74496.00
2023-04-12T06:52:52.954Z,80768.00
2023-04-12T06:54:50.747Z,86912.00
2023-04-12T06:55:50.257Z,85984.00
2023-04-12T06:56:50.266Z,82976.00
2023-04-12T06:57:50.262Z,80128.00
2023-04-12T06:58:50.276Z,81056.00
2023-04-12T06:59:50.339Z,83392.00
2023-04-12T07:00:50.343Z,85760.00
2023-04-12T07:01:50.333Z,84480.00
2023-04-12T07:02:50.427Z,85728.00
2023-04-12T07:03:50.388Z,85792.00
2023-04-12T07:04:50.322Z,87360.00
2023-04-12T07:05:50.327Z,86848.00
2023-04-12T07:06:50.345Z,87456.00
2023-04-12T07:07:50.392Z,85984.00
2023-04-12T07:08:50.363Z,84288.00
2023-04-12T07:09:50.400Z,81216.00
2023-04-12T07:10:50.500Z,83648.00
2023-04-12T07:11:50.392Z,85440.00
2023-04-12T07:12:50.406Z,79712.00
2023-04-12T07:13:50.438Z,78400.00
2023-04-12T07:14:50.427Z,79264.00
2023-04-12T07:15:50.461Z,81856.00
2023-04-12T07:16:50.785Z,87328.00
2023-04-12T07:17:50.490Z,84576.00
2023-04-12T07:18:50.488Z,82880.00
2023-04-12T07:19:50.490Z,87360.00
2023-04-12T07:20:50.511Z,90688.00
2023-04-12T07:21:50.523Z,93088.00
2023-04-12T07:22:50.543Z,91296.00
2023-04-12T07:23:50.549Z,90560.00
2023-04-12T07:24:50.578Z,91008.00
2023-04-12T07:25:50.565Z,87776.00
2023-04-12T07:26:50.576Z,84288.00
2023-04-12T07:27:51.819Z,89728.00
2023-04-12T07:28:50.653Z,86176.00
2023-04-12T07:29:50.609Z,89056.00
2023-04-12T07:30:50.632Z,90240.00
2023-04-12T07:31:50.679Z,88928.00
2023-04-12T07:32:50.751Z,88352.00
2023-04-12T07:33:50.759Z,88992.00
2023-04-12T07:34:50.719Z,86848.00
2023-04-12T07:35:50.719Z,91488.00
2023-04-12T07:36:50.710Z,91232.00
2023-04-12T07:37:50.710Z,89024.00
2023-04-12T07:38:50.751Z,89664.00
2023-04-12T07:39:50.852Z,90912.00
2023-04-12T07:40:50.768Z,90944.00
2023-04-12T07:41:50.755Z,92224.00
2023-04-12T07:42:50.787Z,90528.00
2023-04-12T07:43:50.811Z,85536.00
2023-04-12T07:44:50.802Z,82848.00
2023-04-12T07:45:50.922Z,83456.00
2023-04-12T07:46:50.890Z,85536.00
2023-04-12T07:47:50.883Z,88896.00
2023-04-12T07:48:50.930Z,88768.00
2023-04-12T07:49:50.864Z,88736.00
2023-04-12T07:50:50.909Z,90848.00
2023-04-12T07:51:50.899Z,90528.00
2023-04-12T07:52:50.918Z,85280.00
2023-04-12T07:53:50.936Z,86976.00
2023-04-12T07:54:50.949Z,86496.00
2023-04-12T07:55:50.940Z,83744.00
2023-04-12T07:56:50.989Z,87392.00
2023-04-12T07:57:50.970Z,86336.00
2023-04-12T07:58:50.978Z,86176.00
2023-04-12T07:59:51.001Z,89888.00
2023-04-12T08:00:51.038Z,87552.00
2023-04-12T08:01:51.087Z,88064.00
2023-04-12T08:02:51.169Z,88736.00
2023-04-12T08:03:51.187Z,90848.00
2023-04-12T08:04:51.322Z,86688.00
2023-04-12T08:05:51.158Z,87168.00
2023-04-12T08:06:51.137Z,83456.00
2023-04-12T08:07:51.128Z,82432.00
2023-04-12T08:08:51.119Z,83488.00
2023-04-12T08:09:51.161Z,82912.00
2023-04-12T08:10:51.145Z,69152.00
2023-04-12T08:11:51.255Z,35488.00
2023-04-12T08:12:51.185Z,22528.00
2023-04-12T08:13:51.183Z,21056.00
2023-04-12T08:14:51.196Z,19840.00
2023-04-12T08:15:52.255Z,18944.00
2023-04-12T08:16:51.250Z,18080.00
2023-04-12T08:17:51.305Z,17344.00
2023-04-12T08:18:51.321Z,16576.00
2023-04-12T08:19:51.303Z,15840.00
2023-04-12T08:20:51.279Z,15020.00
2023-04-12T08:21:51.350Z,14252.00
2023-04-12T08:22:51.282Z,13644.00
2023-04-12T08:23:51.302Z,12992.00
2023-04-12T08:24:51.312Z,12380.00
2023-04-12T08:25:51.315Z,11884.00
2023-04-12T08:26:51.331Z,11392.00
2023-04-12T08:27:51.404Z,10932.00
2023-04-12T08:28:51.360Z,10488.00
2023-04-12T08:29:51.354Z,10120.00
2023-04-12T08:30:51.436Z,9792.00
2023-04-12T08:31:51.390Z,9464.00
2023-04-12T08:32:51.406Z,9184.00
2023-04-12T08:33:51.377Z,8916.00
2023-04-12T08:34:51.383Z,8684.00
2023-04-12T08:35:51.454Z,8448.00
2023-04-12T08:36:51.413Z,8220.00
2023-04-12T08:37:51.429Z,8028.00
2023-04-12T08:38:51.408Z,7832.00
2023-04-12T08:39:51.439Z,7656.00
2023-04-12T08:40:51.423Z,7496.00
2023-04-12T08:41:51.453Z,7320.00
2023-04-12T08:42:51.428Z,7160.00
2023-04-12T08:43:51.428Z,7012.00
2023-04-12T08:44:51.436Z,6864.00
2023-04-12T08:45:51.459Z,6732.00
2023-04-12T08:46:53.453Z,6616.00
2023-04-12T08:47:51.483Z,6504.00
2023-04-12T08:48:51.445Z,6396.00
2023-04-12T08:49:51.445Z,6296.00
2023-04-12T08:50:51.465Z,6200.00
2023-04-12T08:51:51.439Z,6112.00
2023-04-12T08:52:51.557Z,6016.00
2023-04-12T08:53:51.452Z,5928.00
2023-04-12T08:54:51.448Z,5848.00
2023-04-12T08:55:51.453Z,5760.00
2023-04-12T08:56:51.498Z,5676.00
2023-04-12T08:57:51.550Z,5588.00
2023-04-12T08:58:51.487Z,5520.00
2023-04-12T08:59:51.455Z,5444.00
2023-04-12T09:00:51.504Z,5368.00
2023-04-12T09:01:51.579Z,5304.00
2023-04-12T09:02:51.669Z,5244.00
2023-04-12T09:03:51.568Z,5196.00
2023-04-12T09:04:51.595Z,5120.00
2023-04-12T09:05:51.468Z,5080.00
2023-04-12T09:06:51.452Z,5180.00
2023-04-12T09:07:51.471Z,5216.00
2023-04-12T09:08:51.458Z,5240.00
2023-04-12T09:09:51.520Z,5224.00
2023-04-12T09:10:51.516Z,5132.00
2023-04-12T09:11:51.467Z,5064.00
2023-04-12T09:12:52.896Z,5016.00
2023-04-12T09:13:51.467Z,4952.00
2023-04-12T09:14:51.471Z,4896.00
2023-04-12T09:15:51.491Z,4856.00
2023-04-12T09:16:51.528Z,4808.00
2023-04-12T09:17:51.490Z,4768.00
2023-04-12T09:18:51.509Z,4688.00
2023-04-12T09:19:51.500Z,4636.00
2023-04-12T09:20:51.453Z,4608.00
2023-04-12T09:21:51.481Z,4628.00
2023-04-12T09:22:51.452Z,4588.00
2023-04-12T09:23:51.467Z,4532.00
2023-04-12T09:24:51.484Z,4496.00
2023-04-12T09:25:51.452Z,4464.00
2023-04-12T09:26:51.449Z,4448.00
2023-04-12T09:27:51.448Z,4436.00
2023-04-12T09:28:51.489Z,4412.00
2023-04-12T09:29:51.603Z,4400.00
2023-04-12T09:30:51.500Z,4372.00
2023-04-12T09:31:51.479Z,4388.00
2023-04-12T09:32:51.482Z,4392.00
2023-04-12T09:33:51.449Z,4360.00
2023-04-12T09:34:51.465Z,4372.00
2023-04-12T09:35:51.732Z,4344.00
2023-04-12T09:36:51.485Z,4328.00
2023-04-12T09:37:51.494Z,4316.00
2023-04-12T09:38:51.455Z,4316.00
2023-04-12T09:39:51.447Z,4284.00
2023-04-12T09:40:51.444Z,4352.00
2023-04-12T09:41:51.456Z,4284.00
2023-04-12T09:42:51.465Z,4256.00
2023-04-12T09:43:51.466Z,4228.00
2023-04-12T09:44:51.436Z,4244.00
2023-04-12T09:45:51.476Z,4236.00
2023-04-12T09:46:51.456Z,4220.00
2023-04-12T09:47:51.486Z,4208.00
2023-04-12T09:48:51.428Z,4192.00
2023-04-12T09:49:51.412Z,4180.00
2023-04-12T09:50:51.427Z,4156.00
2023-04-12T09:51:51.463Z,4188.00
2023-04-12T09:52:51.455Z,4180.00
2023-04-12T09:53:51.451Z,4172.00
2023-04-12T09:54:51.433Z,4168.00
2023-04-12T09:55:51.428Z,4160.00
2023-04-12T09:56:51.470Z,4196.00
2023-04-12T09:57:51.418Z,4188.00
2023-04-12T09:58:51.393Z,4128.00
2023-04-12T09:59:51.392Z,4132.00
2023-04-12T10:00:51.409Z,4164.00
2023-04-12T10:01:51.440Z,4124.00
2023-04-12T10:02:52.277Z,4100.00
2023-04-12T10:03:51.532Z,4088.00
2023-04-12T10:04:51.630Z,4080.00
2023-04-12T10:05:51.434Z,4080.00
2023-04-12T10:06:51.377Z,4056.00
2023-04-12T10:07:51.441Z,4052.00
2023-04-12T10:08:51.405Z,4024.00
2023-04-12T10:09:51.390Z,3988.00
2023-04-12T10:10:51.393Z,3984.00
2023-04-12T10:11:51.387Z,3972.00
2023-04-12T10:12:51.376Z,3964.00
2023-04-12T10:13:51.403Z,3940.00
2023-04-12T10:14:51.375Z,3940.00
2023-04-12T10:15:51.395Z,3932.00
2023-04-12T10:18:34.143Z,3888.00
2023-04-12T10:19:34.086Z,3868.00
2023-04-12T10:20:34.102Z,3840.00
2023-04-12T10:21:34.068Z,3880.00
2023-04-12T10:22:34.092Z,3872.00
2023-04-12T10:23:34.086Z,3868.00
2023-04-12T10:24:34.091Z,3852.00
2023-04-12T10:25:34.063Z,3844.00
2023-04-12T10:26:34.150Z,3828.00
2023-04-12T10:27:34.107Z,3788.00
2023-04-12T10:28:34.134Z,3784.00
2023-04-12T10:29:34.067Z,3772.00
2023-04-12T10:30:34.094Z,3764.00
2023-04-12T10:31:34.195Z,3744.00
2023-04-12T10:32:35.373Z,3728.00
2023-04-12T10:33:34.085Z,3708.00
2023-04-12T10:34:34.091Z,3692.00
2023-04-12T10:35:34.092Z,3680.00
2023-04-12T10:36:34.086Z,3652.00
2023-04-12T10:37:34.069Z,3636.00
2023-04-12T10:38:36.082Z,3608.00
2023-04-12T10:39:34.150Z,3584.00
2023-04-12T10:40:34.097Z,3512.00
2023-04-12T10:41:34.045Z,3528.00
2023-04-12T10:42:34.069Z,3508.00
2023-04-12T10:43:34.080Z,3484.00
2023-04-12T10:44:34.044Z,3484.00
2023-04-12T10:45:34.097Z,3476.00
2023-04-12T10:46:34.153Z,3468.00
2023-04-12T10:47:34.103Z,3448.00
2023-04-12T10:48:34.044Z,3452.00
2023-04-12T10:49:34.051Z,3428.00
2023-04-12T10:50:34.047Z,3404.00
2023-04-12T10:51:34.040Z,3404.00
2023-04-12T10:52:34.169Z,3396.00
2023-04-12T10:53:34.044Z,3392.00
2023-04-12T10:54:34.030Z,3384.00
2023-04-12T10:55:34.059Z,3376.00
2023-04-12T10:56:34.042Z,3380.00
2023-04-12T10:57:34.050Z,3372.00
2023-04-12T10:58:34.023Z,3364.00
2023-04-12T10:59:46.964Z,3324.00
2023-04-12T11:00:34.121Z,3360.00
2023-04-12T11:01:35.940Z,3352.00
2023-04-12T11:02:34.137Z,3348.00
2023-04-12T11:03:34.105Z,3356.00
2023-04-12T11:04:34.073Z,3316.00
2023-04-12T11:05:34.042Z,3340.00
2023-04-12T11:06:34.021Z,3332.00
2023-04-12T11:07:33.992Z,3344.00
2023-04-12T11:08:33.987Z,3344.00
2023-04-12T11:09:34.014Z,3376.00
2023-04-12T11:10:34.138Z,3372.00
2023-04-12T11:11:34.121Z,3396.00
2023-04-12T11:12:34.129Z,3384.00
2023-04-12T11:13:33.998Z,3380.00
2023-04-12T11:14:33.988Z,3384.00
2023-04-12T11:15:34.183Z,3392.00
2023-04-12T11:16:34.072Z,3388.00
2023-04-12T11:17:37.018Z,3348.00
2023-04-12T11:18:34.072Z,3396.00
2023-04-12T11:19:33.984Z,3404.00
2023-04-12T11:20:33.982Z,3408.00
2023-04-12T11:21:34.018Z,3416.00
2023-04-12T11:22:33.991Z,3424.00
2023-04-12T11:23:33.997Z,3432.00
2023-04-12T11:24:33.974Z,3432.00
2023-04-12T11:25:33.992Z,3464.00
2023-04-12T11:26:33.960Z,3492.00
2023-04-12T11:27:33.948Z,3520.00
2023-04-12T11:28:35.352Z,3560.00
2023-04-12T11:29:33.974Z,3588.00
2023-04-12T11:30:33.953Z,3608.00
2023-04-12T11:31:34.003Z,3684.00
2023-04-12T11:32:34.079Z,3720.00
2023-04-12T11:33:33.948Z,3636.00
2023-04-12T11:34:33.950Z,3216.00
2023-04-12T11:35:33.945Z,3604.00
2023-04-12T11:36:33.930Z,3572.00
2023-04-12T11:37:33.945Z,3748.00
2023-04-12T11:38:33.936Z,3940.00
2023-04-12T11:39:33.926Z,3996.00
2023-04-12T11:40:33.938Z,4040.00
2023-04-12T11:41:33.947Z,4092.00
2023-04-12T11:42:33.962Z,4180.00
2023-04-12T11:43:33.973Z,4220.00
2023-04-12T11:44:48.192Z,4172.00
2023-04-12T11:45:33.939Z,4388.00
2023-04-12T11:46:33.919Z,4460.00
2023-04-12T11:47:33.953Z,4512.00
2023-04-12T11:48:34.130Z,4548.00
2023-04-12T11:49:33.915Z,4552.00
2023-04-12T11:50:33.912Z,4636.00
2023-04-12T11:51:33.953Z,4732.00
2023-04-12T11:52:33.953Z,4860.00
2023-04-12T11:53:33.898Z,4720.00
2023-04-12T11:54:34.058Z,3392.00
2023-04-12T11:55:33.990Z,4112.00
2023-04-12T11:56:33.895Z,3456.00
2023-04-12T11:57:33.899Z,3132.00
2023-04-12T11:58:34.011Z,3008.00
2023-04-12T11:59:33.969Z,3200.00
2023-04-12T12:00:33.895Z,3440.00
2023-04-12T12:01:33.915Z,2980.00
2023-04-12T12:02:41.246Z,3640.00
2023-04-12T12:03:33.984Z,3652.00
2023-04-12T12:04:34.164Z,3948.00
2023-04-12T12:05:34.199Z,4132.00
2023-04-12T12:06:34.001Z,4252.00
2023-04-12T12:07:33.976Z,4400.00
2023-04-12T12:08:33.922Z,4576.00
2023-04-12T12:09:33.897Z,4692.00
2023-04-12T12:11:33.865Z,4632.00
2023-04-12T12:12:33.877Z,4728.00
2023-04-12T12:13:33.884Z,4844.00
2023-04-12T12:14:33.991Z,4996.00
2023-04-12T12:15:33.894Z,5216.00
2023-04-12T12:16:33.910Z,5368.00
2023-04-12T12:17:33.876Z,5424.00
2023-04-12T12:18:33.874Z,5540.00
2023-04-12T12:19:33.870Z,5604.00
2023-04-12T12:20:33.847Z,5696.00
2023-04-12T12:21:33.910Z,5848.00
2023-04-12T12:22:33.861Z,6012.00
2023-04-12T12:23:33.846Z,6324.00
2023-04-12T12:24:35.955Z,6436.00
2023-04-12T12:25:33.840Z,6588.00
2023-04-12T12:26:33.835Z,6720.00
2023-04-12T12:27:33.896Z,6848.00
2023-04-12T12:28:33.834Z,6912.00
2023-04-12T12:29:33.833Z,6948.00